sensor_id;sensor_type;location;lat;lon;timestamp;temperature;humidity
33761;DHT22;20084;47.912;19.044;2023-08-08T00:01:01;15.10;99.90
33761;DHT22;20084;47.912;19.044;2023-08-08T00:03:26;15.00;99.90
33761;DHT22;20084;47.912;19.044;2023-08-08T00:05:52;15.00;99.90
33761;DHT22;20084;47.912;19.044;2023-08-08T00:08:18;15.00;99.90
33761;DHT22;20084;47.912;19.044;2023-08-08T00:10:44;15.00;99.90
33761;DHT22;20084;47.912;19.044;2023-08-08T00:13:09;14.90;99.90
33761;DHT22;20084;47.912;19.044;2023-08-08T00:15:35;15.00;99.90
33761;DHT22;20084;47.912;19.044;2023-08-08T00:18:02;15.00;99.90
33761;DHT22;20084;47.912;19.044;2023-08-08T00:20:27;15.00;99.90
33761;DHT22;20084;47.912;19.044;2023-08-08T00:22:53;14.90;99.90
33761;DHT22;20084;47.912;19.044;2023-08-08T00:25:19;14.90;99.90
33761;DHT22;20084;47.912;19.044;2023-08-08T00:27:44;14.90;99.90
33761;DHT22;20084;47.912;19.044;2023-08-08T00:30:11;14.90;99.90
33761;DHT22;20084;47.912;19.044;2023-08-08T00:32:38;14.90;99.90
33761;DHT22;20084;47.912;19.044;2023-08-08T00:35:04;14.90;99.90
33761;DHT22;20084;47.912;19.044;2023-08-08T00:37:29;14.90;99.90
33761;DHT22;20084;47.912;19.044;2023-08-08T00:39:55;14.90;99.90
33761;DHT22;20084;47.912;19.044;2023-08-08T00:42:21;14.90;99.90
33761;DHT22;20084;47.912;19.044;2023-08-08T00:44:48;14.90;99.90
33761;DHT22;20084;47.912;19.044;2023-08-08T00:47:14;14.90;99.90
33761;DHT22;20084;47.912;19.044;2023-08-08T00:49:40;14.90;99.90
33761;DHT22;20084;47.912;19.044;2023-08-08T00:52:06;14.90;99.90
33761;DHT22;20084;47.912;19.044;2023-08-08T00:54:33;14.90;99.90
33761;DHT22;20084;47.912;19.044;2023-08-08T00:56:58;14.90;99.90
33761;DHT22;20084;47.912;19.044;2023-08-08T00:59:24;14.90;99.90
33761;DHT22;20084;47.912;19.044;2023-08-08T01:01:50;15.00;99.90
33761;DHT22;20084;47.912;19.044;2023-08-08T01:04:16;15.00;99.90
33761;DHT22;20084;47.912;19.044;2023-08-08T01:09:23;15.00;99.90
33761;DHT22;20084;47.912;19.044;2023-08-08T01:11:51;15.00;99.90
33761;DHT22;20084;47.912;19.044;2023-08-08T01:14:18;15.00;99.90
33761;DHT22;20084;47.912;19.044;2023-08-08T01:16:44;15.10;99.90
33761;DHT22;20084;47.912;19.044;2023-08-08T01:19:15;15.10;99.90
33761;DHT22;20084;47.912;19.044;2023-08-08T01:21:45;15.10;99.90
33761;DHT22;20084;47.912;19.044;2023-08-08T01:26:43;15.10;99.90
33761;DHT22;20084;47.912;19.044;2023-08-08T01:29:09;15.10;99.90
33761;DHT22;20084;47.912;19.044;2023-08-08T01:31:35;15.10;99.90
33761;DHT22;20084;47.912;19.044;2023-08-08T01:34:00;15.20;99.90
33761;DHT22;20084;47.912;19.044;2023-08-08T01:36:35;15.20;99.90
33761;DHT22;20084;47.912;19.044;2023-08-08T01:39:05;15.20;99.90
33761;DHT22;20084;47.912;19.044;2023-08-08T01:41:38;15.20;99.90
33761;DHT22;20084;47.912;19.044;2023-08-08T01:44:04;15.10;99.90
33761;DHT22;20084;47.912;19.044;2023-08-08T01:46:30;15.10;99.90
33761;DHT22;20084;47.912;19.044;2023-08-08T01:48:58;15.10;99.90
33761;DHT22;20084;47.912;19.044;2023-08-08T01:51:24;15.00;99.90
33761;DHT22;20084;47.912;19.044;2023-08-08T01:53:51;15.00;99.90
33761;DHT22;20084;47.912;19.044;2023-08-08T01:56:17;15.00;99.90
33761;DHT22;20084;47.912;19.044;2023-08-08T01:58:42;15.10;99.90
33761;DHT22;20084;47.912;19.044;2023-08-08T02:01:08;15.00;99.90
33761;DHT22;20084;47.912;19.044;2023-08-08T02:03:33;15.00;99.90
33761;DHT22;20084;47.912;19.044;2023-08-08T02:05:59;15.10;99.90
33761;DHT22;20084;47.912;19.044;2023-08-08T02:08:25;15.10;99.90
33761;DHT22;20084;47.912;19.044;2023-08-08T02:10:50;15.10;99.90
33761;DHT22;20084;47.912;19.044;2023-08-08T02:13:16;15.10;99.90
33761;DHT22;20084;47.912;19.044;2023-08-08T02:15:41;15.20;99.90
33761;DHT22;20084;47.912;19.044;2023-08-08T02:18:07;15.20;99.90
33761;DHT22;20084;47.912;19.044;2023-08-08T02:20:34;15.20;99.90
33761;DHT22;20084;47.912;19.044;2023-08-08T02:23:00;15.20;99.90
33761;DHT22;20084;47.912;19.044;2023-08-08T02:25:25;15.10;99.90
33761;DHT22;20084;47.912;19.044;2023-08-08T02:27:51;15.10;99.90
33761;DHT22;20084;47.912;19.044;2023-08-08T02:30:17;15.00;99.90
33761;DHT22;20084;47.912;19.044;2023-08-08T02:32:42;15.00;99.90
33761;DHT22;20084;47.912;19.044;2023-08-08T02:35:08;14.90;99.90
33761;DHT22;20084;47.912;19.044;2023-08-08T02:37:34;14.90;99.90
33761;DHT22;20084;47.912;19.044;2023-08-08T02:39:59;14.90;99.90
33761;DHT22;20084;47.912;19.044;2023-08-08T02:42:25;14.90;99.90
33761;DHT22;20084;47.912;19.044;2023-08-08T02:44:51;14.80;99.90
33761;DHT22;20084;47.912;19.044;2023-08-08T02:47:16;14.80;99.90
33761;DHT22;20084;47.912;19.044;2023-08-08T02:49:42;14.70;99.90
33761;DHT22;20084;47.912;19.044;2023-08-08T02:52:07;14.70;99.90
33761;DHT22;20084;47.912;19.044;2023-08-08T02:54:33;14.70;99.90
33761;DHT22;20084;47.912;19.044;2023-08-08T02:56:59;14.60;99.90
33761;DHT22;20084;47.912;19.044;2023-08-08T02:59:24;14.50;99.90
33761;DHT22;20084;47.912;19.044;2023-08-08T03:01:50;14.40;99.90
33761;DHT22;20084;47.912;19.044;2023-08-08T03:04:15;14.40;99.90
33761;DHT22;20084;47.912;19.044;2023-08-08T03:06:41;14.40;99.90
33761;DHT22;20084;47.912;19.044;2023-08-08T03:09:07;14.40;99.90
33761;DHT22;20084;47.912;19.044;2023-08-08T03:11:32;14.40;99.90
33761;DHT22;20084;47.912;19.044;2023-08-08T03:13:58;14.40;99.90
33761;DHT22;20084;47.912;19.044;2023-08-08T03:16:24;14.40;99.90
33761;DHT22;20084;47.912;19.044;2023-08-08T03:18:49;14.30;99.90
33761;DHT22;20084;47.912;19.044;2023-08-08T03:21:15;14.30;99.90
33761;DHT22;20084;47.912;19.044;2023-08-08T03:23:41;14.20;99.90
33761;DHT22;20084;47.912;19.044;2023-08-08T03:26:07;14.20;99.90
33761;DHT22;20084;47.912;19.044;2023-08-08T03:28:32;14.10;99.90
33761;DHT22;20084;47.912;19.044;2023-08-08T03:30:58;14.10;99.90
33761;DHT22;20084;47.912;19.044;2023-08-08T03:33:24;14.10;99.90
33761;DHT22;20084;47.912;19.044;2023-08-08T03:35:49;14.10;99.90
33761;DHT22;20084;47.912;19.044;2023-08-08T03:38:15;14.00;99.90
33761;DHT22;20084;47.912;19.044;2023-08-08T03:40:40;14.00;99.90
33761;DHT22;20084;47.912;19.044;2023-08-08T03:43:07;14.00;99.90
33761;DHT22;20084;47.912;19.044;2023-08-08T03:45:32;14.00;99.90
33761;DHT22;20084;47.912;19.044;2023-08-08T03:47:58;14.00;99.90
33761;DHT22;20084;47.912;19.044;2023-08-08T03:50:23;14.00;99.90
33761;DHT22;20084;47.912;19.044;2023-08-08T03:52:49;14.00;99.90
33761;DHT22;20084;47.912;19.044;2023-08-08T03:55:15;14.00;99.90
33761;DHT22;20084;47.912;19.044;2023-08-08T03:57:40;14.00;99.90
33761;DHT22;20084;47.912;19.044;2023-08-08T04:00:07;14.00;99.90
33761;DHT22;20084;47.912;19.044;2023-08-08T04:02:33;14.10;99.90
33761;DHT22;20084;47.912;19.044;2023-08-08T04:04:59;14.10;99.90
33761;DHT22;20084;47.912;19.044;2023-08-08T04:07:25;14.20;99.90
33761;DHT22;20084;47.912;19.044;2023-08-08T04:09:50;14.20;99.90
33761;DHT22;20084;47.912;19.044;2023-08-08T04:12:16;14.20;99.90
33761;DHT22;20084;47.912;19.044;2023-08-08T04:14:41;14.20;99.90
33761;DHT22;20084;47.912;19.044;2023-08-08T04:17:07;14.30;99.90
33761;DHT22;20084;47.912;19.044;2023-08-08T04:19:33;14.30;99.90
33761;DHT22;20084;47.912;19.044;2023-08-08T04:21:58;14.20;99.90
33761;DHT22;20084;47.912;19.044;2023-08-08T04:24:25;14.20;99.90
33761;DHT22;20084;47.912;19.044;2023-08-08T04:26:50;14.30;99.90
33761;DHT22;20084;47.912;19.044;2023-08-08T04:29:16;14.30;99.90
33761;DHT22;20084;47.912;19.044;2023-08-08T04:31:41;14.30;99.90
33761;DHT22;20084;47.912;19.044;2023-08-08T04:34:07;14.40;99.90
33761;DHT22;20084;47.912;19.044;2023-08-08T04:36:33;14.40;99.90
33761;DHT22;20084;47.912;19.044;2023-08-08T04:38:58;14.50;99.90
33761;DHT22;20084;47.912;19.044;2023-08-08T04:41:24;14.60;99.90
33761;DHT22;20084;47.912;19.044;2023-08-08T04:43:50;14.60;99.90
33761;DHT22;20084;47.912;19.044;2023-08-08T04:46:15;14.70;99.90
33761;DHT22;20084;47.912;19.044;2023-08-08T04:48:41;14.70;99.90
33761;DHT22;20084;47.912;19.044;2023-08-08T04:51:07;14.70;99.90
33761;DHT22;20084;47.912;19.044;2023-08-08T04:53:33;14.80;99.90
33761;DHT22;20084;47.912;19.044;2023-08-08T04:55:59;14.80;99.90
33761;DHT22;20084;47.912;19.044;2023-08-08T04:58:24;14.90;99.90
33761;DHT22;20084;47.912;19.044;2023-08-08T05:00:50;15.00;99.90
33761;DHT22;20084;47.912;19.044;2023-08-08T05:03:17;15.00;99.90
33761;DHT22;20084;47.912;19.044;2023-08-08T05:05:42;15.10;99.90
33761;DHT22;20084;47.912;19.044;2023-08-08T05:08:10;15.30;99.90
33761;DHT22;20084;47.912;19.044;2023-08-08T05:10:36;15.40;99.90
33761;DHT22;20084;47.912;19.044;2023-08-08T05:13:02;15.50;99.90
33761;DHT22;20084;47.912;19.044;2023-08-08T05:15:28;15.60;99.90
33761;DHT22;20084;47.912;19.044;2023-08-08T05:17:53;15.70;99.90
33761;DHT22;20084;47.912;19.044;2023-08-08T05:20:20;15.80;99.90
33761;DHT22;20084;47.912;19.044;2023-08-08T05:22:46;15.90;99.90
33761;DHT22;20084;47.912;19.044;2023-08-08T05:25:12;16.00;99.90
33761;DHT22;20084;47.912;19.044;2023-08-08T05:27:38;16.10;99.90
33761;DHT22;20084;47.912;19.044;2023-08-08T05:30:04;16.10;99.90
33761;DHT22;20084;47.912;19.044;2023-08-08T05:32:30;16.10;99.90
33761;DHT22;20084;47.912;19.044;2023-08-08T05:34:57;16.20;99.90
33761;DHT22;20084;47.912;19.044;2023-08-08T05:37:23;16.30;99.90
33761;DHT22;20084;47.912;19.044;2023-08-08T05:39:49;16.30;99.90
33761;DHT22;20084;47.912;19.044;2023-08-08T05:42:15;16.30;99.90
33761;DHT22;20084;47.912;19.044;2023-08-08T05:44:40;16.40;99.90
33761;DHT22;20084;47.912;19.044;2023-08-08T05:47:10;16.50;99.90
33761;DHT22;20084;47.912;19.044;2023-08-08T05:49:35;16.50;99.90
33761;DHT22;20084;47.912;19.044;2023-08-08T05:52:01;16.60;99.90
33761;DHT22;20084;47.912;19.044;2023-08-08T05:54:27;16.60;99.90
33761;DHT22;20084;47.912;19.044;2023-08-08T05:56:53;16.70;99.90
33761;DHT22;20084;47.912;19.044;2023-08-08T05:59:19;16.80;99.90
33761;DHT22;20084;47.912;19.044;2023-08-08T06:01:45;16.90;99.90
33761;DHT22;20084;47.912;19.044;2023-08-08T06:04:12;17.00;99.90
33761;DHT22;20084;47.912;19.044;2023-08-08T06:06:37;17.10;99.90
33761;DHT22;20084;47.912;19.044;2023-08-08T06:09:03;17.20;99.90
33761;DHT22;20084;47.912;19.044;2023-08-08T06:11:29;17.40;99.90
33761;DHT22;20084;47.912;19.044;2023-08-08T06:13:55;17.60;99.90
33761;DHT22;20084;47.912;19.044;2023-08-08T06:16:21;17.70;99.90
33761;DHT22;20084;47.912;19.044;2023-08-08T06:18:46;17.80;99.90
33761;DHT22;20084;47.912;19.044;2023-08-08T06:21:12;17.90;99.90
33761;DHT22;20084;47.912;19.044;2023-08-08T06:23:38;17.90;99.90
33761;DHT22;20084;47.912;19.044;2023-08-08T06:26:04;18.00;99.90
33761;DHT22;20084;47.912;19.044;2023-08-08T06:28:29;18.10;99.90
33761;DHT22;20084;47.912;19.044;2023-08-08T06:30:57;18.00;99.90
33761;DHT22;20084;47.912;19.044;2023-08-08T06:33:22;18.00;99.90
33761;DHT22;20084;47.912;19.044;2023-08-08T06:35:49;18.00;99.90
33761;DHT22;20084;47.912;19.044;2023-08-08T06:38:14;18.00;99.90
33761;DHT22;20084;47.912;19.044;2023-08-08T06:40:40;18.10;99.90
33761;DHT22;20084;47.912;19.044;2023-08-08T06:43:06;18.20;99.90
33761;DHT22;20084;47.912;19.044;2023-08-08T06:45:32;18.30;99.90
33761;DHT22;20084;47.912;19.044;2023-08-08T06:47:57;18.50;99.90
33761;DHT22;20084;47.912;19.044;2023-08-08T06:50:23;18.70;99.90
33761;DHT22;20084;47.912;19.044;2023-08-08T06:52:50;18.90;99.90
33761;DHT22;20084;47.912;19.044;2023-08-08T06:55:16;19.00;99.90
33761;DHT22;20084;47.912;19.044;2023-08-08T06:57:41;19.00;99.90
33761;DHT22;20084;47.912;19.044;2023-08-08T07:00:07;19.00;99.90
33761;DHT22;20084;47.912;19.044;2023-08-08T07:02:34;19.00;99.90
33761;DHT22;20084;47.912;19.044;2023-08-08T07:05:00;18.90;99.90
33761;DHT22;20084;47.912;19.044;2023-08-08T07:07:25;18.80;99.90
33761;DHT22;20084;47.912;19.044;2023-08-08T07:09:51;18.60;99.90
33761;DHT22;20084;47.912;19.044;2023-08-08T07:12:17;18.70;99.90
33761;DHT22;20084;47.912;19.044;2023-08-08T07:14:42;18.70;99.90
33761;DHT22;20084;47.912;19.044;2023-08-08T07:17:08;18.60;99.90
33761;DHT22;20084;47.912;19.044;2023-08-08T07:19:35;18.50;99.90
33761;DHT22;20084;47.912;19.044;2023-08-08T07:22:02;18.60;99.90
33761;DHT22;20084;47.912;19.044;2023-08-08T07:24:27;18.60;99.90
33761;DHT22;20084;47.912;19.044;2023-08-08T07:26:55;18.60;99.90
33761;DHT22;20084;47.912;19.044;2023-08-08T07:29:21;18.70;99.90
33761;DHT22;20084;47.912;19.044;2023-08-08T07:31:46;18.90;99.90
33761;DHT22;20084;47.912;19.044;2023-08-08T07:34:12;19.00;99.90
33761;DHT22;20084;47.912;19.044;2023-08-08T07:36:38;19.00;99.90
33761;DHT22;20084;47.912;19.044;2023-08-08T07:39:03;19.10;99.90
33761;DHT22;20084;47.912;19.044;2023-08-08T07:41:30;19.20;99.90
33761;DHT22;20084;47.912;19.044;2023-08-08T07:43:55;19.20;99.90
33761;DHT22;20084;47.912;19.044;2023-08-08T07:46:21;19.10;99.90
33761;DHT22;20084;47.912;19.044;2023-08-08T07:48:47;19.10;99.90
33761;DHT22;20084;47.912;19.044;2023-08-08T07:51:13;19.10;99.90
33761;DHT22;20084;47.912;19.044;2023-08-08T07:53:39;19.10;99.90
33761;DHT22;20084;47.912;19.044;2023-08-08T07:56:04;19.00;99.90
33761;DHT22;20084;47.912;19.044;2023-08-08T07:58:32;18.90;99.90
33761;DHT22;20084;47.912;19.044;2023-08-08T08:00:57;18.80;99.90
33761;DHT22;20084;47.912;19.044;2023-08-08T08:03:25;18.70;99.90
33761;DHT22;20084;47.912;19.044;2023-08-08T08:05:51;18.70;99.90
33761;DHT22;20084;47.912;19.044;2023-08-08T08:08:16;18.80;99.90
33761;DHT22;20084;47.912;19.044;2023-08-08T08:10:42;18.90;99.90
33761;DHT22;20084;47.912;19.044;2023-08-08T08:13:08;18.90;99.90
33761;DHT22;20084;47.912;19.044;2023-08-08T08:15:34;19.00;99.90
33761;DHT22;20084;47.912;19.044;2023-08-08T08:18:00;19.10;99.90
33761;DHT22;20084;47.912;19.044;2023-08-08T08:20:25;19.30;99.90
33761;DHT22;20084;47.912;19.044;2023-08-08T08:22:51;19.20;99.90
33761;DHT22;20084;47.912;19.044;2023-08-08T08:25:16;19.20;99.90
33761;DHT22;20084;47.912;19.044;2023-08-08T08:27:42;19.20;99.90
33761;DHT22;20084;47.912;19.044;2023-08-08T08:30:08;19.30;99.90
33761;DHT22;20084;47.912;19.044;2023-08-08T08:32:38;19.30;99.90
33761;DHT22;20084;47.912;19.044;2023-08-08T08:35:05;19.30;99.90
33761;DHT22;20084;47.912;19.044;2023-08-08T08:37:32;19.30;99.90
33761;DHT22;20084;47.912;19.044;2023-08-08T08:39:58;19.30;99.90
33761;DHT22;20084;47.912;19.044;2023-08-08T08:42:24;19.20;99.90
33761;DHT22;20084;47.912;19.044;2023-08-08T08:44:51;19.00;99.90
33761;DHT22;20084;47.912;19.044;2023-08-08T08:47:20;18.90;99.90
33761;DHT22;20084;47.912;19.044;2023-08-08T08:49:46;18.80;99.90
33761;DHT22;20084;47.912;19.044;2023-08-08T08:52:12;18.70;99.90
33761;DHT22;20084;47.912;19.044;2023-08-08T08:54:39;18.50;99.90
33761;DHT22;20084;47.912;19.044;2023-08-08T08:57:05;18.40;99.90
33761;DHT22;20084;47.912;19.044;2023-08-08T08:59:31;18.30;99.90
33761;DHT22;20084;47.912;19.044;2023-08-08T09:01:57;18.30;99.90
33761;DHT22;20084;47.912;19.044;2023-08-08T09:04:23;18.40;99.90
33761;DHT22;20084;47.912;19.044;2023-08-08T09:06:50;18.50;99.90
33761;DHT22;20084;47.912;19.044;2023-08-08T09:09:17;18.60;99.90
33761;DHT22;20084;47.912;19.044;2023-08-08T09:11:45;18.40;99.90
33761;DHT22;20084;47.912;19.044;2023-08-08T09:14:21;18.30;99.90
33761;DHT22;20084;47.912;19.044;2023-08-08T09:16:48;18.20;99.90
33761;DHT22;20084;47.912;19.044;2023-08-08T09:19:15;18.20;99.90
33761;DHT22;20084;47.912;19.044;2023-08-08T09:21:43;18.10;99.90
33761;DHT22;20084;47.912;19.044;2023-08-08T09:24:09;18.10;99.90
33761;DHT22;20084;47.912;19.044;2023-08-08T09:26:34;18.20;99.90
33761;DHT22;20084;47.912;19.044;2023-08-08T09:29:02;18.20;99.90
33761;DHT22;20084;47.912;19.044;2023-08-08T09:31:28;18.10;99.90
33761;DHT22;20084;47.912;19.044;2023-08-08T09:33:57;18.10;99.90
33761;DHT22;20084;47.912;19.044;2023-08-08T09:36:23;18.10;99.90
33761;DHT22;20084;47.912;19.044;2023-08-08T09:38:49;18.10;99.90
33761;DHT22;20084;47.912;19.044;2023-08-08T09:41:15;18.10;99.90
33761;DHT22;20084;47.912;19.044;2023-08-08T09:43:47;18.10;99.90
33761;DHT22;20084;47.912;19.044;2023-08-08T09:46:12;18.20;99.90
33761;DHT22;20084;47.912;19.044;2023-08-08T09:48:40;18.20;99.90
33761;DHT22;20084;47.912;19.044;2023-08-08T09:51:07;18.30;99.90
33761;DHT22;20084;47.912;19.044;2023-08-08T09:53:34;18.20;99.90
33761;DHT22;20084;47.912;19.044;2023-08-08T09:56:03;18.20;99.90
33761;DHT22;20084;47.912;19.044;2023-08-08T09:58:29;18.20;99.90
33761;DHT22;20084;47.912;19.044;2023-08-08T10:00:54;18.20;99.90
33761;DHT22;20084;47.912;19.044;2023-08-08T10:03:21;18.20;99.90
33761;DHT22;20084;47.912;19.044;2023-08-08T10:05:47;18.30;99.90
33761;DHT22;20084;47.912;19.044;2023-08-08T10:08:16;18.40;99.90
33761;DHT22;20084;47.912;19.044;2023-08-08T10:10:47;18.50;99.90
33761;DHT22;20084;47.912;19.044;2023-08-08T10:13:24;18.50;99.90
33761;DHT22;20084;47.912;19.044;2023-08-08T10:15:51;18.50;99.90
33761;DHT22;20084;47.912;19.044;2023-08-08T10:18:18;18.60;99.90
33761;DHT22;20084;47.912;19.044;2023-08-08T10:20:47;18.80;99.90
33761;DHT22;20084;47.912;19.044;2023-08-08T10:23:15;18.90;99.90
33761;DHT22;20084;47.912;19.044;2023-08-08T10:25:48;18.90;99.90
33761;DHT22;20084;47.912;19.044;2023-08-08T10:28:22;19.00;99.90
33761;DHT22;20084;47.912;19.044;2023-08-08T10:30:57;19.00;99.90
33761;DHT22;20084;47.912;19.044;2023-08-08T10:33:25;19.10;99.90
33761;DHT22;20084;47.912;19.044;2023-08-08T10:36:04;19.10;99.90
33761;DHT22;20084;47.912;19.044;2023-08-08T10:38:47;19.10;99.90
33761;DHT22;20084;47.912;19.044;2023-08-08T10:41:20;19.20;99.90
33761;DHT22;20084;47.912;19.044;2023-08-08T10:43:57;19.20;99.90
33761;DHT22;20084;47.912;19.044;2023-08-08T10:46:30;19.10;99.90
33761;DHT22;20084;47.912;19.044;2023-08-08T10:48:58;19.20;99.90
33761;DHT22;20084;47.912;19.044;2023-08-08T10:51:38;19.20;99.90
33761;DHT22;20084;47.912;19.044;2023-08-08T10:54:15;19.30;99.90
33761;DHT22;20084;47.912;19.044;2023-08-08T10:56:51;19.30;99.90
33761;DHT22;20084;47.912;19.044;2023-08-08T11:01:48;19.40;99.90
33761;DHT22;20084;47.912;19.044;2023-08-08T11:04:16;19.40;99.90
33761;DHT22;20084;47.912;19.044;2023-08-08T11:06:44;19.40;99.90
33761;DHT22;20084;47.912;19.044;2023-08-08T11:09:10;19.40;99.90
33761;DHT22;20084;47.912;19.044;2023-08-08T11:11:39;19.40;99.90
33761;DHT22;20084;47.912;19.044;2023-08-08T11:14:12;19.30;99.90
33761;DHT22;20084;47.912;19.044;2023-08-08T11:16:38;19.30;99.90
33761;DHT22;20084;47.912;19.044;2023-08-08T11:19:04;19.20;99.90
33761;DHT22;20084;47.912;19.044;2023-08-08T11:21:34;19.20;99.90
33761;DHT22;20084;47.912;19.044;2023-08-08T11:24:01;19.20;99.90
33761;DHT22;20084;47.912;19.044;2023-08-08T11:26:27;19.20;99.90
33761;DHT22;20084;47.912;19.044;2023-08-08T11:28:53;19.40;99.90
33761;DHT22;20084;47.912;19.044;2023-08-08T11:31:21;19.50;99.90
33761;DHT22;20084;47.912;19.044;2023-08-08T11:33:48;19.60;99.90
33761;DHT22;20084;47.912;19.044;2023-08-08T11:36:14;19.60;99.90
33761;DHT22;20084;47.912;19.044;2023-08-08T11:38:41;19.70;99.90
33761;DHT22;20084;47.912;19.044;2023-08-08T11:41:15;19.70;99.90
33761;DHT22;20084;47.912;19.044;2023-08-08T11:43:41;19.80;99.90
33761;DHT22;20084;47.912;19.044;2023-08-08T11:46:14;19.80;99.90
33761;DHT22;20084;47.912;19.044;2023-08-08T11:48:41;19.70;99.90
33761;DHT22;20084;47.912;19.044;2023-08-08T11:51:08;19.80;99.90
33761;DHT22;20084;47.912;19.044;2023-08-08T11:53:34;19.90;99.90
33761;DHT22;20084;47.912;19.044;2023-08-08T11:56:01;20.00;99.90
33761;DHT22;20084;47.912;19.044;2023-08-08T11:58:29;20.20;99.90
33761;DHT22;20084;47.912;19.044;2023-08-08T12:00:57;20.40;99.90
33761;DHT22;20084;47.912;19.044;2023-08-08T12:03:25;20.50;99.90
33761;DHT22;20084;47.912;19.044;2023-08-08T12:05:51;20.60;99.90
33761;DHT22;20084;47.912;19.044;2023-08-08T12:08:18;20.50;99.90
33761;DHT22;20084;47.912;19.044;2023-08-08T12:10:50;20.40;99.90
33761;DHT22;20084;47.912;19.044;2023-08-08T12:13:23;20.40;99.90
33761;DHT22;20084;47.912;19.044;2023-08-08T12:15:53;20.40;99.90
33761;DHT22;20084;47.912;19.044;2023-08-08T12:18:19;20.40;99.90
33761;DHT22;20084;47.912;19.044;2023-08-08T12:20:46;20.50;99.90
33761;DHT22;20084;47.912;19.044;2023-08-08T12:23:13;20.60;99.90
33761;DHT22;20084;47.912;19.044;2023-08-08T12:25:42;20.70;99.90
33761;DHT22;20084;47.912;19.044;2023-08-08T12:28:08;20.80;99.90
33761;DHT22;20084;47.912;19.044;2023-08-08T12:30:34;20.80;99.90
33761;DHT22;20084;47.912;19.044;2023-08-08T12:33:00;20.80;99.90
33761;DHT22;20084;47.912;19.044;2023-08-08T12:35:26;20.70;99.90
33761;DHT22;20084;47.912;19.044;2023-08-08T12:37:53;20.60;99.90
33761;DHT22;20084;47.912;19.044;2023-08-08T12:40:19;20.60;99.90
33761;DHT22;20084;47.912;19.044;2023-08-08T12:42:47;20.70;99.90
33761;DHT22;20084;47.912;19.044;2023-08-08T12:45:13;20.80;99.90
33761;DHT22;20084;47.912;19.044;2023-08-08T12:47:39;21.00;99.90
33761;DHT22;20084;47.912;19.044;2023-08-08T12:50:06;21.00;99.90
33761;DHT22;20084;47.912;19.044;2023-08-08T12:52:33;20.80;99.90
33761;DHT22;20084;47.912;19.044;2023-08-08T12:54:59;20.50;99.90
33761;DHT22;20084;47.912;19.044;2023-08-08T12:57:25;20.40;99.90
33761;DHT22;20084;47.912;19.044;2023-08-08T12:59:51;20.10;99.90
33761;DHT22;20084;47.912;19.044;2023-08-08T13:02:16;20.00;99.90
33761;DHT22;20084;47.912;19.044;2023-08-08T13:04:42;19.80;99.90
33761;DHT22;20084;47.912;19.044;2023-08-08T13:07:08;19.60;99.90
33761;DHT22;20084;47.912;19.044;2023-08-08T13:09:34;19.40;99.90
33761;DHT22;20084;47.912;19.044;2023-08-08T13:12:00;19.10;99.90
33761;DHT22;20084;47.912;19.044;2023-08-08T13:14:26;18.80;99.90
33761;DHT22;20084;47.912;19.044;2023-08-08T13:16:52;18.80;99.90
33761;DHT22;20084;47.912;19.044;2023-08-08T13:19:19;18.60;99.90
33761;DHT22;20084;47.912;19.044;2023-08-08T13:21:47;18.50;99.90
33761;DHT22;20084;47.912;19.044;2023-08-08T13:24:12;18.40;99.90
33761;DHT22;20084;47.912;19.044;2023-08-08T13:26:39;18.30;99.90
33761;DHT22;20084;47.912;19.044;2023-08-08T13:29:06;18.30;99.90
33761;DHT22;20084;47.912;19.044;2023-08-08T13:31:32;18.30;99.90
33761;DHT22;20084;47.912;19.044;2023-08-08T13:33:58;18.30;99.90
33761;DHT22;20084;47.912;19.044;2023-08-08T13:36:24;18.40;99.90
33761;DHT22;20084;47.912;19.044;2023-08-08T13:38:50;18.40;99.90
33761;DHT22;20084;47.912;19.044;2023-08-08T13:41:15;18.40;99.90
33761;DHT22;20084;47.912;19.044;2023-08-08T13:43:41;18.40;99.90
33761;DHT22;20084;47.912;19.044;2023-08-08T13:46:07;18.40;99.90
33761;DHT22;20084;47.912;19.044;2023-08-08T13:48:35;18.50;99.90
33761;DHT22;20084;47.912;19.044;2023-08-08T13:51:01;18.60;99.90
33761;DHT22;20084;47.912;19.044;2023-08-08T13:53:28;18.70;99.90
33761;DHT22;20084;47.912;19.044;2023-08-08T13:55:54;18.70;99.90
33761;DHT22;20084;47.912;19.044;2023-08-08T13:58:20;18.70;99.90
33761;DHT22;20084;47.912;19.044;2023-08-08T14:00:48;18.80;99.90
33761;DHT22;20084;47.912;19.044;2023-08-08T14:03:14;18.90;99.90
33761;DHT22;20084;47.912;19.044;2023-08-08T14:05:40;19.00;99.90
33761;DHT22;20084;47.912;19.044;2023-08-08T14:08:06;19.20;99.90
33761;DHT22;20084;47.912;19.044;2023-08-08T14:10:32;19.20;99.90
33761;DHT22;20084;47.912;19.044;2023-08-08T14:12:57;19.30;99.90
33761;DHT22;20084;47.912;19.044;2023-08-08T14:15:23;19.40;99.90
33761;DHT22;20084;47.912;19.044;2023-08-08T14:17:49;19.60;99.90
33761;DHT22;20084;47.912;19.044;2023-08-08T14:20:14;19.70;99.90
33761;DHT22;20084;47.912;19.044;2023-08-08T14:22:43;20.00;99.90
33761;DHT22;20084;47.912;19.044;2023-08-08T14:25:09;20.20;99.90
33761;DHT22;20084;47.912;19.044;2023-08-08T14:27:35;20.40;99.90
33761;DHT22;20084;47.912;19.044;2023-08-08T14:30:02;20.60;99.90
33761;DHT22;20084;47.912;19.044;2023-08-08T14:32:27;20.70;99.90
33761;DHT22;20084;47.912;19.044;2023-08-08T14:34:53;20.80;99.90
33761;DHT22;20084;47.912;19.044;2023-08-08T14:37:19;20.90;99.90
33761;DHT22;20084;47.912;19.044;2023-08-08T14:39:44;21.10;99.90
33761;DHT22;20084;47.912;19.044;2023-08-08T14:42:10;21.20;99.90
33761;DHT22;20084;47.912;19.044;2023-08-08T14:44:35;21.20;99.90
33761;DHT22;20084;47.912;19.044;2023-08-08T14:47:02;21.20;99.90
33761;DHT22;20084;47.912;19.044;2023-08-08T14:49:28;21.30;99.90
33761;DHT22;20084;47.912;19.044;2023-08-08T14:51:53;21.40;99.90
33761;DHT22;20084;47.912;19.044;2023-08-08T14:54:19;21.50;99.90
33761;DHT22;20084;47.912;19.044;2023-08-08T14:56:45;21.50;99.90
33761;DHT22;20084;47.912;19.044;2023-08-08T14:59:14;21.40;99.90
33761;DHT22;20084;47.912;19.044;2023-08-08T15:01:48;21.40;99.90
33761;DHT22;20084;47.912;19.044;2023-08-08T15:04:17;21.40;99.90
33761;DHT22;20084;47.912;19.044;2023-08-08T15:06:43;21.40;99.90
33761;DHT22;20084;47.912;19.044;2023-08-08T15:09:09;21.40;99.90
33761;DHT22;20084;47.912;19.044;2023-08-08T15:11:35;21.40;99.90
33761;DHT22;20084;47.912;19.044;2023-08-08T15:14:03;21.30;99.90
33761;DHT22;20084;47.912;19.044;2023-08-08T15:16:29;21.30;99.90
33761;DHT22;20084;47.912;19.044;2023-08-08T15:18:55;21.20;99.90